Bei Facebook empfehlenBei Twitter postenGoogle plusPinterest

Das Wetter im Erzgebirge am 19.05.2017

Wetter und Klima am 19.05.2017 Holzhau im Erzgebirge (630m ü.NN)
Letzte gemessene Temperatur und Uhrzeit der Messung23:45:00 Uhr11.90 °C
Temperatur (Maximum / Höchstwert) und Uhrzeit der Messung17:15:00 Uhr25.30 °C
Temperatur (Minimum / Tiefstwert) und Uhrzeit der Messung06:00:0010.50 °C
Errechneter Absolutwert der Temperaturschwankungen zwischen Tmin und Tmax des Tages14.80 K
Errechnete Tagesmitteltemperatur18.65521 °C
Gesamt - Niederschlag des Tages (in flüssiger Form)0.00 Liter / m²
Luftdruck (Maximum / Höchstwert) und Zeitpunkt der Messung23:45:00 Uhr1010.10 hPa
Luftdruck (Minimum / Tiefstwert) und Zeitpunkt der Messung19:15:00 Uhr1004.70 hPa
Errechneter Absolutwert der Luftdruckschwankungen des Tages5.40 hPa
Höchste gemessene Windgeschwindigkeit und Uhrzeit der Messung23:00:00 Uhr53.28 km/h
Errechnete Windhäufigkeit in Relation zu den Messwerten des Tages53.12500 %
Niedrigste Windkühle (Windchill) und Zeitpunkt der Messung06:00:00 Uhr10.50 °C
Taupunkt (Maximum / Höchstwert) und Uhrzeit der Messung15:15:00 Uhr13.30 °C
Taupunkt (Minimum / Tiefstwert) und Uhrzeit der Messung06:00:007.90 °C
Anzahl der automatisch eingelesenen Messwerte 96

Detaillierte Wetter- und Klima- Messwerte für den 19.05.2017 in Holzhau im Erzgebirge (630m ü.NN)
ZeitTemperaturLuftdruckRel. LuftfeuchteWindWindrichtungWindchillTaupunktNiederschlag l/m²
23:45:0011.90 °C1010.10 hPa83.00 %9.10 °C 
23:30:0012.80 °C1009.70 hPa81.00 %30.96 km/hW12.20 °C9.60 °C 
23:15:0013.80 °C1009.40 hPa79.00 %24.48 km/hNNW13.70 °C10.20 °C 
23:00:0015.60 °C1008.70 hPa82.00 %53.28 km/hNW14.80 °C12.50 °C 
22:45:0016.10 °C1008.50 hPa80.00 %12.70 °C 
22:30:0016.50 °C1008.10 hPa76.00 %9.00 km/hNNW16.50 °C12.30 °C 
22:15:0016.90 °C1007.80 hPa74.00 %12.20 °C 
22:00:0017.40 °C1007.60 hPa72.00 %12.30 °C 
21:45:0017.70 °C1007.30 hPa70.00 %12.20 °C 
21:30:0017.60 °C1006.90 hPa67.00 %11.40 °C 
21:15:0017.30 °C1006.50 hPa64.00 %15.48 km/hNW17.30 °C10.40 °C 
21:00:0018.30 °C1005.50 hPa56.00 %9.40 °C 
20:45:0019.20 °C1005.70 hPa54.00 %3.96 km/hOSO19.20 °C9.70 °C 
20:30:0020.10 °C1005.60 hPa51.00 %9.70 °C 
20:15:0021.00 °C1005.20 hPa50.00 %10.20 °C 
20:00:0021.80 °C1005.00 hPa49.00 %10.60 °C 
19:45:0022.40 °C1005.10 hPa47.00 %5.04 km/hNNO22.40 °C10.50 °C 
19:30:0022.80 °C1005.00 hPa46.00 %12.96 km/hO22.80 °C10.60 °C 
19:15:0023.10 °C1004.70 hPa46.00 %10.44 km/hSSO23.10 °C10.90 °C 
19:00:0023.30 °C1004.80 hPa46.00 %38.88 km/hOSO24.50 °C11.00 °C 
18:45:0023.80 °C1005.00 hPa45.00 %37.44 km/hONO25.10 °C11.20 °C 
18:30:0024.20 °C1004.80 hPa45.00 %11.50 °C 
18:15:0024.30 °C1004.90 hPa44.00 %25.92 km/hSSO25.80 °C11.30 °C 
18:00:0024.60 °C1005.00 hPa45.00 %3.96 km/hONO24.60 °C11.90 °C 
17:45:0024.60 °C1005.20 hPa45.00 %11.90 °C 
17:30:0025.10 °C1005.50 hPa44.00 %27.36 km/hSW26.80 °C12.00 °C 
17:15:0025.30 °C1005.80 hPa44.00 %5.04 km/hO25.30 °C12.20 °C 
17:00:0025.30 °C1005.90 hPa45.00 %28.44 km/hN27.00 °C12.50 °C 
16:45:0025.10 °C1005.90 hPa45.00 %5.04 km/hSO25.10 °C12.30 °C 
16:30:0025.10 °C1006.10 hPa43.00 %11.60 °C 
16:15:0025.20 °C1006.10 hPa45.00 %40.32 km/hWSW26.80 °C12.40 °C 
16:00:0024.90 °C1006.10 hPa47.00 %12.80 °C 
15:45:0024.90 °C1006.30 hPa46.00 %33.84 km/hSO26.50 °C12.50 °C 
15:30:0024.90 °C1006.30 hPa46.00 %16.92 km/hSSW24.90 °C12.50 °C 
15:15:0024.70 °C1006.20 hPa49.00 %14.40 km/hSW24.70 °C13.30 °C 
15:00:0024.40 °C1006.10 hPa48.00 %1.44 km/hSSW24.40 °C12.70 °C 
14:45:0024.30 °C1006.30 hPa48.00 %28.44 km/hNNO25.80 °C12.60 °C 
14:30:0024.20 °C1006.30 hPa50.00 %5.04 km/hSSO24.20 °C13.10 °C 
14:15:0024.30 °C1006.40 hPa49.00 %29.88 km/hSSO25.80 °C12.90 °C 
14:00:0024.10 °C1006.40 hPa49.00 %7.92 km/hWSW24.10 °C12.70 °C 
13:45:0024.10 °C1006.50 hPa47.00 %36.36 km/hWSW25.50 °C12.10 °C 
13:30:0024.20 °C1006.40 hPa47.00 %7.92 km/hONO24.20 °C12.20 °C 
13:15:0024.20 °C1006.40 hPa48.00 %16.92 km/hSO24.20 °C12.50 °C 
13:00:0023.90 °C1006.40 hPa50.00 %11.52 km/hSO23.90 °C12.80 °C 
12:45:0023.40 °C1006.50 hPa50.00 %12.40 °C 
12:30:0023.20 °C1006.40 hPa50.00 %5.04 km/hN23.20 °C12.20 °C 
12:15:0022.80 °C1006.70 hPa52.00 %43.92 km/hSSO23.80 °C12.40 °C 
12:00:0022.80 °C1006.80 hPa53.00 %38.88 km/hO23.90 °C12.70 °C 
11:45:0022.60 °C1006.80 hPa53.00 %25.92 km/hSW23.90 °C12.50 °C 
11:30:0022.30 °C1006.80 hPa51.00 %6.48 km/hOSO22.30 °C11.70 °C 
11:15:0022.50 °C1006.70 hPa51.00 %42.84 km/hSO23.50 °C11.90 °C 
11:00:0022.40 °C1006.70 hPa54.00 %7.92 km/hNNO22.40 °C12.60 °C 
10:45:0022.10 °C1006.80 hPa53.00 %20.88 km/hONO23.40 °C12.10 °C 
10:30:0021.90 °C1006.80 hPa53.00 %30.96 km/hSSO22.90 °C11.90 °C 
10:15:0022.00 °C1006.80 hPa52.00 %27.36 km/hOSO23.10 °C11.70 °C 
10:00:0021.30 °C1006.70 hPa55.00 %24.48 km/hO22.40 °C11.90 °C 
09:45:0020.30 °C1006.80 hPa56.00 %32.40 km/hSO21.00 °C11.20 °C 
09:30:0019.90 °C1007.00 hPa56.00 %25.92 km/hO20.70 °C10.90 °C 
09:15:0019.90 °C1007.00 hPa56.00 %20.88 km/hSO20.90 °C10.90 °C 
09:00:0020.10 °C1007.10 hPa58.00 %11.60 °C 
08:45:0020.00 °C1007.10 hPa58.00 %1.44 km/hSO20.00 °C11.50 °C 
08:30:0019.90 °C1007.10 hPa59.00 %23.40 km/hW20.80 °C11.70 °C 
08:15:0019.60 °C1007.30 hPa59.00 %36.36 km/hO20.10 °C11.40 °C 
08:00:0019.60 °C1007.30 hPa59.00 %11.40 °C 
07:45:0018.90 °C1007.10 hPa62.00 %11.50 °C 
07:30:0018.10 °C1007.10 hPa66.00 %11.70 °C 
07:15:0016.10 °C1007.10 hPa73.00 %11.30 °C 
07:00:0012.60 °C1007.20 hPa82.00 %9.60 °C 
06:45:0011.40 °C1007.40 hPa84.00 %8.80 °C 
06:30:0010.90 °C1007.50 hPa84.00 %8.30 °C 
06:15:0010.60 °C1007.50 hPa84.00 %8.00 °C 
06:00:0010.50 °C1007.60 hPa84.00 %7.90 °C 
05:45:0010.80 °C1007.70 hPa83.00 %8.00 °C 
05:30:0010.90 °C1007.60 hPa83.00 %8.10 °C 
05:15:0011.10 °C1007.40 hPa82.00 %8.10 °C 
05:00:0011.30 °C1007.60 hPa81.00 %8.20 °C 
04:45:0011.60 °C1007.70 hPa81.00 %8.50 °C 
04:30:0011.90 °C1007.90 hPa80.00 %8.60 °C 
04:15:0012.30 °C1007.80 hPa80.00 %9.00 °C 
04:00:0012.40 °C1007.90 hPa79.00 %8.90 °C 
03:45:0012.70 °C1007.90 hPa78.00 %9.00 °C 
03:30:0012.90 °C1007.90 hPa78.00 %9.20 °C 
03:15:0013.20 °C1007.90 hPa78.00 %9.50 °C 
03:00:0013.10 °C1007.80 hPa79.00 %5.04 km/hOSO13.10 °C9.50 °C 
02:45:0013.20 °C1007.90 hPa78.00 %9.50 °C 
02:30:0013.30 °C1007.90 hPa78.00 %9.50 °C 
02:15:0013.10 °C1007.90 hPa79.00 %5.04 km/hSO13.10 °C9.50 °C 
02:00:0012.90 °C1008.10 hPa79.00 %3.96 km/hSO12.90 °C9.40 °C 
01:45:0012.80 °C1008.20 hPa80.00 %9.40 °C 
01:30:0012.50 °C1008.30 hPa80.00 %12.96 km/hSO12.50 °C9.10 °C 
01:15:0012.40 °C1008.30 hPa80.00 %9.10 °C 
01:00:0012.30 °C1008.50 hPa79.00 %8.80 °C 
00:45:0012.50 °C1008.70 hPa79.00 %9.00 °C 
00:30:0012.60 °C1008.80 hPa79.00 %9.10 °C 
00:15:0012.90 °C1009.10 hPa77.00 %9.00 °C 
00:00:0013.20 °C1009.00 hPa77.00 %9.30 °C 

Permanenter Link zu dieser Seite: Wetter im Erzgebirge am 19.05.2017
Performance-Info: Die Erstellung der Seite / Statistik(en) / Tabelle(n) erforderte 5 Datenbankserver-Abfrage(n) und dauerte 100 Millisekunden. (Dieser Messwert ist von der Gesamt-Auslastung des Servers abhängig.)
Erzgebirge - Wetter | Erzgebirge - Wetter (Mobilgeräte) | Komplette Klimadatenbank